createdAt,value
2019-03-06T00:00:43.162Z,6.00
2019-03-06T00:03:10.317Z,5.67
2019-03-06T00:05:38.073Z,6.53
2019-03-06T00:08:05.256Z,6.67
2019-03-06T00:10:32.461Z,6.53
2019-03-06T00:12:59.636Z,6.33
2019-03-06T00:15:26.795Z,6.07
2019-03-06T00:17:53.990Z,6.13
2019-03-06T00:20:21.151Z,6.03
2019-03-06T00:22:48.318Z,6.47
2019-03-06T00:25:15.514Z,6.90
2019-03-06T00:27:42.703Z,6.87
2019-03-06T00:30:13.724Z,6.53
2019-03-06T00:32:41.655Z,6.03
2019-03-06T00:35:28.162Z,6.23
2019-03-06T00:37:55.342Z,6.43
2019-03-06T00:40:40.315Z,6.70
2019-03-06T00:43:07.514Z,6.43
2019-03-06T00:45:34.681Z,6.43
2019-03-06T00:48:01.873Z,5.60
2019-03-06T00:50:29.048Z,6.00
2019-03-06T00:52:56.227Z,6.07
2019-03-06T00:55:23.408Z,6.57
2019-03-06T00:57:50.583Z,5.77
2019-03-06T01:00:20.069Z,6.17
2019-03-06T01:02:47.257Z,5.63
2019-03-06T01:05:14.445Z,5.87
2019-03-06T01:07:41.891Z,6.17
2019-03-06T01:10:10.755Z,5.80
2019-03-06T01:12:37.918Z,5.90
2019-03-06T01:15:06.465Z,6.90
2019-03-06T01:17:33.657Z,6.77
2019-03-06T01:20:01.093Z,5.57
2019-03-06T01:22:28.282Z,6.20
2019-03-06T01:24:56.031Z,6.07
2019-03-06T01:27:23.289Z,6.57
2019-03-06T01:29:50.485Z,8.33
2019-03-06T01:32:17.665Z,7.17
2019-03-06T01:34:53.161Z,6.37
2019-03-06T01:37:21.990Z,6.93
2019-03-06T01:40:05.383Z,6.57
2019-03-06T01:42:36.917Z,7.07
2019-03-06T01:45:04.729Z,6.60
2019-03-06T01:47:31.916Z,7.83
2019-03-06T01:49:59.110Z,7.20
2019-03-06T01:52:26.267Z,7.03
2019-03-06T01:54:54.005Z,7.33
2019-03-06T01:57:21.235Z,6.97
2019-03-06T01:59:48.420Z,6.90
2019-03-06T02:02:15.610Z,7.67
2019-03-06T02:04:42.865Z,7.23
2019-03-06T02:07:10.933Z,7.37
2019-03-06T02:09:38.900Z,7.40
2019-03-06T02:12:06.075Z,7.93
2019-03-06T02:14:33.260Z,8.03
2019-03-06T02:17:00.449Z,7.90
2019-03-06T02:19:27.630Z,7.53
2019-03-06T02:21:55.378Z,8.37
2019-03-06T02:24:22.563Z,8.33
2019-03-06T02:26:49.738Z,7.90
2019-03-06T02:29:16.917Z,8.13
2019-03-06T02:31:44.094Z,8.67
2019-03-06T02:34:11.342Z,8.50
2019-03-06T02:36:38.598Z,8.77
2019-03-06T02:39:06.242Z,9.00
2019-03-06T02:41:33.416Z,7.63
2019-03-06T02:44:00.594Z,9.00
2019-03-06T02:46:27.774Z,8.50
2019-03-06T02:48:54.965Z,9.20
2019-03-06T02:51:22.227Z,8.53
2019-03-06T02:53:49.772Z,8.40
2019-03-06T02:56:16.972Z,9.20
2019-03-06T02:59:00.918Z,8.43
2019-03-06T03:01:44.658Z,9.30
2019-03-06T03:04:13.895Z,8.43
2019-03-06T03:06:45.406Z,9.37
2019-03-06T03:09:14.174Z,9.33
2019-03-06T03:11:41.428Z,9.73
2019-03-06T03:14:08.799Z,8.77
2019-03-06T03:16:35.972Z,10.03
2019-03-06T03:19:03.150Z,9.20
2019-03-06T03:21:30.346Z,9.37
2019-03-06T03:23:57.830Z,9.23
2019-03-06T03:26:25.091Z,10.00
2019-03-06T03:28:52.636Z,9.37
2019-03-06T03:31:19.810Z,8.50
2019-03-06T03:33:47.089Z,8.57
2019-03-06T03:36:14.379Z,8.77
2019-03-06T03:38:41.607Z,9.10
2019-03-06T03:41:08.881Z,8.83
2019-03-06T03:43:36.622Z,9.70
2019-03-06T03:46:03.880Z,9.23
2019-03-06T03:48:31.121Z,9.63
2019-03-06T03:50:58.307Z,9.10
2019-03-06T03:53:25.575Z,10.17
2019-03-06T03:55:52.823Z,8.73
2019-03-06T03:58:20.407Z,8.73
2019-03-06T04:00:47.650Z,8.90
2019-03-06T04:03:14.900Z,8.93
2019-03-06T04:05:42.760Z,8.70
2019-03-06T04:08:09.956Z,8.80
2019-03-06T04:10:37.192Z,9.57
2019-03-06T04:13:04.741Z,9.83
2019-03-06T04:15:31.933Z,8.97
2019-03-06T04:17:59.170Z,9.17
2019-03-06T04:20:26.356Z,9.07
2019-03-06T04:22:53.530Z,8.77
2019-03-06T04:25:20.702Z,8.00
2019-03-06T04:27:48.375Z,9.53
2019-03-06T04:30:16.697Z,8.83
2019-03-06T04:32:44.083Z,9.23
2019-03-06T04:35:11.324Z,8.13
2019-03-06T04:37:38.503Z,8.73
2019-03-06T04:40:08.173Z,10.33
2019-03-06T04:42:35.395Z,8.97
2019-03-06T04:45:02.557Z,8.47
2019-03-06T04:47:29.732Z,8.27
2019-03-06T04:49:56.946Z,8.87
2019-03-06T04:52:24.124Z,8.73
2019-03-06T04:54:52.071Z,8.50
2019-03-06T04:57:19.915Z,9.10
2019-03-06T04:59:47.689Z,10.10
2019-03-06T05:02:14.867Z,9.43
2019-03-06T05:04:42.520Z,8.60
2019-03-06T05:07:09.733Z,9.50
2019-03-06T05:09:37.589Z,9.07
2019-03-06T05:12:04.768Z,8.70
2019-03-06T05:14:32.536Z,8.57
2019-03-06T05:17:07.204Z,8.30
2019-03-06T05:19:34.374Z,8.70
2019-03-06T05:22:02.218Z,9.97
2019-03-06T05:24:29.395Z,9.70
2019-03-06T05:26:57.205Z,10.03
2019-03-06T05:29:24.395Z,9.17
2019-03-06T05:32:09.984Z,10.43
2019-03-06T05:34:37.207Z,9.43
2019-03-06T05:37:06.018Z,9.80
2019-03-06T05:39:33.210Z,9.73
2019-03-06T05:42:00.405Z,10.97
2019-03-06T05:44:27.582Z,10.20
2019-03-06T05:46:55.658Z,11.03
2019-03-06T05:49:22.834Z,11.90
2019-03-06T05:51:50.009Z,11.57
2019-03-06T05:54:17.197Z,12.07
2019-03-06T05:56:44.394Z,10.17
2019-03-06T05:59:11.590Z,11.47
2019-03-06T06:01:38.818Z,12.67
2019-03-06T06:04:06.009Z,11.87
2019-03-06T06:06:33.701Z,10.27
2019-03-06T06:09:00.889Z,10.43
2019-03-06T06:11:28.390Z,11.10
2019-03-06T06:13:56.049Z,9.27
2019-03-06T06:16:23.314Z,10.33
2019-03-06T06:18:50.819Z,10.53
2019-03-06T06:21:19.640Z,10.93
2019-03-06T06:23:57.241Z,10.03
2019-03-06T06:26:24.838Z,9.40
2019-03-06T06:28:52.011Z,11.03
2019-03-06T06:31:19.186Z,9.30
2019-03-06T06:33:46.364Z,8.93
2019-03-06T06:36:13.574Z,8.93
2019-03-06T06:38:40.762Z,10.60
2019-03-06T06:41:07.926Z,9.97
2019-03-06T06:43:35.298Z,10.97
2019-03-06T06:46:02.475Z,10.83
2019-03-06T06:48:29.710Z,9.83
2019-03-06T06:51:01.461Z,9.90
2019-03-06T06:53:34.755Z,9.83
2019-03-06T06:56:03.542Z,9.73
2019-03-06T06:58:32.357Z,10.20
2019-03-06T07:01:08.573Z,9.67
2019-03-06T07:03:56.987Z,11.00
2019-03-06T07:06:31.546Z,9.13
2019-03-06T07:09:12.518Z,9.60
2019-03-06T07:11:44.242Z,10.40
2019-03-06T07:14:16.083Z,11.03
2019-03-06T07:16:44.908Z,10.43
2019-03-06T07:19:16.622Z,9.50
2019-03-06T07:21:48.254Z,10.63
2019-03-06T07:24:17.064Z,9.73
2019-03-06T07:26:46.338Z,10.27
2019-03-06T07:29:31.347Z,9.53
2019-03-06T07:32:08.885Z,9.43
2019-03-06T07:34:40.652Z,10.73
2019-03-06T07:37:11.915Z,10.10
2019-03-06T07:39:40.715Z,9.60
2019-03-06T07:42:10.133Z,9.60
2019-03-06T07:44:41.738Z,9.57
2019-03-06T07:47:10.574Z,9.30
2019-03-06T07:49:45.028Z,9.50
2019-03-06T07:52:20.989Z,9.30
2019-03-06T07:54:49.813Z,9.00
2019-03-06T07:57:18.637Z,9.03
2019-03-06T07:59:45.904Z,8.27
2019-03-06T08:02:20.393Z,8.50
2019-03-06T08:04:53.980Z,8.30
2019-03-06T08:07:21.230Z,7.50
2019-03-06T08:09:49.466Z,9.47
2019-03-06T08:12:34.598Z,8.97
2019-03-06T08:15:12.502Z,8.13
2019-03-06T08:17:44.437Z,8.53
2019-03-06T08:20:13.277Z,8.40
2019-03-06T08:22:50.894Z,7.40
2019-03-06T08:25:35.632Z,7.90
2019-03-06T08:28:02.959Z,8.00
2019-03-06T08:30:31.751Z,7.77
2019-03-06T08:32:58.948Z,9.20
2019-03-06T08:35:26.226Z,8.40
2019-03-06T08:37:53.587Z,7.73
2019-03-06T08:40:20.839Z,7.10
2019-03-06T08:42:48.488Z,7.10
2019-03-06T08:45:17.372Z,7.43
2019-03-06T08:47:46.226Z,7.60
2019-03-06T08:50:23.901Z,8.80
2019-03-06T08:52:52.796Z,7.73
2019-03-06T08:55:37.552Z,7.30
2019-03-06T08:58:06.408Z,7.47
2019-03-06T09:00:43.901Z,7.27
2019-03-06T09:03:27.468Z,7.60
2019-03-06T09:06:12.232Z,6.93
2019-03-06T09:08:57.236Z,7.77
2019-03-06T09:11:42.157Z,7.30
2019-03-06T09:14:11.007Z,7.43
2019-03-06T09:16:45.380Z,7.97
2019-03-06T09:19:14.186Z,8.43
2019-03-06T09:21:54.685Z,8.10
2019-03-06T09:24:29.415Z,8.10
2019-03-06T09:26:59.649Z,8.00
2019-03-06T09:29:31.297Z,8.70
2019-03-06T09:32:08.943Z,8.30
2019-03-06T09:34:40.447Z,6.83
2019-03-06T09:37:18.131Z,7.13
2019-03-06T09:39:52.602Z,7.13
2019-03-06T09:42:37.750Z,6.50
2019-03-06T09:45:07.658Z,6.23
2019-03-06T09:47:39.182Z,6.93
2019-03-06T09:50:12.742Z,8.20
2019-03-06T09:52:50.418Z,6.80
2019-03-06T09:55:37.184Z,5.70
2019-03-06T09:58:08.659Z,5.90
2019-03-06T10:00:53.718Z,6.03
2019-03-06T10:03:38.721Z,6.17
2019-03-06T10:06:07.623Z,5.77
2019-03-06T10:08:52.705Z,5.87
2019-03-06T10:11:21.530Z,6.37
2019-03-06T10:14:05.414Z,5.37
2019-03-06T10:16:36.870Z,5.87
2019-03-06T10:19:05.975Z,4.80
2019-03-06T10:21:33.328Z,4.17
2019-03-06T10:24:00.530Z,4.93
2019-03-06T10:26:28.914Z,4.10
2019-03-06T10:28:56.238Z,4.73
2019-03-06T10:31:23.502Z,5.87
2019-03-06T10:33:50.763Z,5.50
2019-03-06T10:36:18.027Z,6.27
2019-03-06T10:38:45.926Z,6.43
2019-03-06T10:41:14.210Z,5.50
2019-03-06T10:43:48.887Z,5.50
2019-03-06T10:46:10.354Z,5.60
2019-03-06T10:48:37.602Z,6.17
2019-03-06T10:51:04.965Z,6.17
2019-03-06T10:53:41.109Z,5.97
2019-03-06T10:56:01.117Z,7.13
2019-03-06T10:58:28.693Z,6.77
2019-03-06T11:00:55.928Z,6.40
2019-03-06T11:03:24.895Z,5.60
2019-03-06T11:05:52.132Z,4.87
2019-03-06T11:08:19.409Z,5.17
2019-03-06T11:10:46.652Z,5.33
2019-03-06T11:13:13.947Z,5.47
2019-03-06T11:15:41.682Z,5.27
2019-03-06T11:18:08.921Z,5.03
2019-03-06T11:20:36.619Z,4.57
2019-03-06T11:23:05.477Z,4.87
2019-03-06T11:25:32.714Z,5.30
2019-03-06T11:27:59.920Z,4.30
2019-03-06T11:30:28.819Z,5.53
2019-03-06T11:32:56.049Z,4.27
2019-03-06T11:35:25.638Z,3.90
2019-03-06T11:37:52.804Z,3.90
2019-03-06T11:40:20.035Z,3.70
2019-03-06T11:42:48.009Z,4.40
2019-03-06T11:45:16.891Z,4.63
2019-03-06T11:47:44.166Z,3.97
2019-03-06T11:50:12.291Z,4.20
2019-03-06T11:52:39.758Z,4.20
2019-03-06T11:55:08.589Z,4.13
2019-03-06T11:57:36.038Z,3.80
2019-03-06T12:00:05.201Z,4.23
2019-03-06T12:02:32.445Z,3.70
2019-03-06T12:04:59.709Z,3.73
2019-03-06T12:07:26.955Z,3.93
2019-03-06T12:09:54.250Z,3.40
2019-03-06T12:12:21.510Z,3.77
2019-03-06T12:14:48.763Z,3.80
2019-03-06T12:17:16.112Z,3.53
2019-03-06T12:19:43.383Z,3.80
2019-03-06T12:22:10.663Z,3.30
2019-03-06T12:24:37.917Z,3.40
2019-03-06T12:27:05.191Z,4.40
2019-03-06T12:29:32.443Z,4.20
2019-03-06T12:31:59.691Z,4.20
2019-03-06T12:34:27.878Z,3.40
2019-03-06T12:36:55.165Z,3.37
2019-03-06T12:39:22.396Z,3.00
2019-03-06T12:41:49.696Z,3.40
2019-03-06T12:44:16.910Z,3.10
2019-03-06T12:46:44.269Z,3.17
2019-03-06T12:49:11.713Z,3.03
2019-03-06T12:51:38.967Z,3.40
2019-03-06T12:54:06.218Z,3.70
2019-03-06T12:56:33.480Z,3.33
2019-03-06T12:59:00.663Z,3.03
2019-03-06T13:01:27.859Z,3.30
2019-03-06T13:03:55.096Z,3.17
2019-03-06T13:06:24.690Z,2.60
2019-03-06T13:08:51.209Z,2.77
2019-03-06T13:11:18.451Z,2.97
2019-03-06T13:13:45.703Z,2.70
2019-03-06T13:16:12.934Z,2.67
2019-03-06T13:18:40.116Z,2.50
2019-03-06T13:21:07.744Z,2.40
2019-03-06T13:23:35.297Z,2.60
2019-03-06T13:26:10.027Z,2.63
2019-03-06T13:28:31.504Z,2.70
2019-03-06T13:30:58.742Z,2.13
2019-03-06T13:33:33.268Z,4.70
2019-03-06T13:36:00.462Z,2.43
2019-03-06T13:38:27.907Z,2.20
2019-03-06T13:40:55.201Z,2.20
2019-03-06T13:43:22.440Z,2.27
2019-03-06T13:45:49.692Z,2.17
2019-03-06T13:48:16.890Z,1.97
2019-03-06T13:50:44.225Z,2.00
2019-03-06T13:53:19.885Z,2.07
2019-03-06T13:55:40.364Z,2.30
2019-03-06T13:58:07.629Z,2.10
2019-03-06T14:00:34.879Z,2.07
2019-03-06T14:03:02.668Z,1.80
2019-03-06T14:05:29.857Z,2.20
2019-03-06T14:07:57.127Z,2.07
2019-03-06T14:10:24.662Z,2.30
2019-03-06T14:12:52.123Z,2.20
2019-03-06T14:15:19.438Z,1.77
2019-03-06T14:17:46.694Z,2.30
2019-03-06T14:20:15.887Z,2.17
2019-03-06T14:22:43.120Z,2.33
2019-03-06T14:25:10.646Z,2.47
2019-03-06T14:27:37.891Z,2.03
2019-03-06T14:30:09.593Z,2.47
2019-03-06T14:32:38.598Z,2.07
2019-03-06T14:35:06.652Z,1.80
2019-03-06T14:37:33.912Z,2.13
2019-03-06T14:40:09.300Z,2.23
2019-03-06T14:42:30.571Z,1.90
2019-03-06T14:44:57.926Z,2.33
2019-03-06T14:47:25.178Z,2.33
2019-03-06T14:49:52.406Z,2.90
2019-03-06T14:52:19.577Z,2.57
2019-03-06T14:54:47.428Z,2.53
2019-03-06T14:57:14.666Z,2.60
2019-03-06T14:59:41.869Z,2.37
2019-03-06T15:02:09.218Z,2.73
2019-03-06T15:04:36.469Z,2.73
2019-03-06T15:07:03.661Z,2.70
2019-03-06T15:09:30.902Z,3.03
2019-03-06T15:11:58.065Z,2.97
2019-03-06T15:14:25.314Z,3.07
2019-03-06T15:16:52.565Z,3.10
2019-03-06T15:19:20.318Z,3.67
2019-03-06T15:21:47.574Z,2.90
2019-03-06T15:24:14.829Z,2.83
2019-03-06T15:26:42.070Z,2.80
2019-03-06T15:29:12.203Z,2.93
2019-03-06T15:31:39.911Z,3.17
2019-03-06T15:34:07.246Z,4.10
2019-03-06T15:36:34.474Z,2.83
2019-03-06T15:39:01.721Z,2.80
2019-03-06T15:41:28.962Z,2.50
2019-03-06T15:43:56.164Z,3.10
2019-03-06T15:46:24.003Z,2.83
2019-03-06T15:48:51.251Z,4.13
2019-03-06T15:51:18.906Z,3.13
2019-03-06T15:53:46.088Z,4.37
2019-03-06T15:56:14.197Z,3.37
2019-03-06T15:58:42.009Z,3.10
2019-03-06T16:01:09.250Z,3.17
2019-03-06T16:03:36.514Z,3.30
2019-03-06T16:06:04.770Z,3.10
2019-03-06T16:08:31.934Z,3.50
2019-03-06T16:10:59.124Z,5.20
2019-03-06T16:13:26.309Z,3.67
2019-03-06T16:15:53.507Z,3.97
2019-03-06T16:18:20.679Z,4.73
2019-03-06T16:20:47.914Z,3.20
2019-03-06T16:23:15.157Z,3.83
2019-03-06T16:25:42.399Z,3.90
2019-03-06T16:28:09.670Z,4.50
2019-03-06T16:30:36.936Z,5.70
2019-03-06T16:33:04.863Z,4.77
2019-03-06T16:35:32.115Z,4.60
2019-03-06T16:37:59.289Z,5.60
2019-03-06T16:40:27.510Z,5.10
2019-03-06T16:42:54.696Z,6.17
2019-03-06T16:45:25.610Z,5.10
2019-03-06T16:47:52.881Z,5.87
2019-03-06T16:50:20.487Z,5.67
2019-03-06T16:52:47.678Z,7.47
2019-03-06T16:55:15.931Z,6.00
2019-03-06T16:57:43.103Z,6.33
2019-03-06T17:00:17.539Z,6.73
2019-03-06T17:02:44.803Z,6.50
2019-03-06T17:05:12.066Z,6.93
2019-03-06T17:07:39.299Z,6.90
2019-03-06T17:10:06.470Z,7.43
2019-03-06T17:12:33.726Z,6.10
2019-03-06T17:15:00.970Z,7.13
2019-03-06T17:17:28.138Z,6.43
2019-03-06T17:19:55.335Z,6.43
2019-03-06T17:22:22.574Z,6.10
2019-03-06T17:24:49.741Z,6.70
2019-03-06T17:27:16.923Z,7.33
2019-03-06T17:29:44.231Z,6.13
2019-03-06T17:32:11.410Z,6.47
2019-03-06T17:34:38.626Z,6.67
2019-03-06T17:37:05.885Z,6.17
2019-03-06T17:39:33.124Z,6.83
2019-03-06T17:42:00.806Z,6.20
2019-03-06T17:44:28.038Z,6.17
2019-03-06T17:46:55.239Z,7.07
2019-03-06T17:49:22.486Z,7.00
2019-03-06T17:51:49.722Z,6.97
2019-03-06T17:54:16.925Z,7.03
2019-03-06T17:56:44.216Z,6.40
2019-03-06T17:59:11.461Z,6.27
2019-03-06T18:01:38.708Z,6.70
2019-03-06T18:04:07.601Z,7.20
2019-03-06T18:06:34.867Z,6.17
2019-03-06T18:09:02.143Z,7.00
2019-03-06T18:11:29.390Z,6.20
2019-03-06T18:13:56.982Z,6.63
2019-03-06T18:16:24.177Z,7.53
2019-03-06T18:18:51.616Z,5.87
2019-03-06T18:21:18.833Z,6.33
2019-03-06T18:23:46.117Z,6.23
2019-03-06T18:26:13.370Z,6.60
2019-03-06T18:28:40.634Z,6.27
2019-03-06T18:31:07.882Z,6.10
2019-03-06T18:33:35.133Z,6.10
2019-03-06T18:36:02.391Z,5.17
2019-03-06T18:38:30.767Z,5.33
2019-03-06T18:40:58.038Z,6.30
2019-03-06T18:43:25.288Z,5.17
2019-03-06T18:45:52.461Z,6.33
2019-03-06T18:48:19.728Z,6.17
2019-03-06T18:50:47.007Z,5.50
2019-03-06T18:53:14.239Z,5.73
2019-03-06T18:55:41.697Z,4.80
2019-03-06T18:58:08.968Z,5.67
2019-03-06T19:00:36.294Z,4.53
2019-03-06T19:03:03.558Z,5.17
2019-03-06T19:05:30.794Z,4.60
2019-03-06T19:07:58.083Z,4.87
2019-03-06T19:10:25.325Z,4.33
2019-03-06T19:12:52.800Z,4.47
2019-03-06T19:15:24.579Z,4.20
2019-03-06T19:17:51.819Z,4.20
2019-03-06T19:20:19.347Z,3.83
2019-03-06T19:22:47.544Z,4.63
2019-03-06T19:25:15.829Z,5.17
2019-03-06T19:27:43.004Z,3.77
2019-03-06T19:30:14.258Z,3.87
2019-03-06T19:32:41.421Z,4.20
2019-03-06T19:35:08.703Z,4.17
2019-03-06T19:37:35.949Z,3.97
2019-03-06T19:40:03.495Z,4.67
2019-03-06T19:42:30.744Z,4.23
2019-03-06T19:44:58.675Z,4.07
2019-03-06T19:47:25.931Z,4.23
2019-03-06T19:49:53.108Z,3.67
2019-03-06T19:52:20.382Z,3.77
2019-03-06T19:54:48.931Z,3.93
2019-03-06T19:57:16.186Z,4.10
2019-03-06T19:59:43.459Z,3.70
2019-03-06T20:02:10.691Z,3.53
2019-03-06T20:04:37.970Z,4.67
2019-03-06T20:07:05.299Z,4.30
2019-03-06T20:09:32.575Z,4.17
2019-03-06T20:11:59.864Z,4.27
2019-03-06T20:14:27.204Z,4.70
2019-03-06T20:16:54.527Z,4.47
2019-03-06T20:19:22.312Z,3.43
2019-03-06T20:21:49.687Z,3.43
2019-03-06T20:24:16.957Z,3.77
2019-03-06T20:26:44.206Z,4.23
2019-03-06T20:29:11.468Z,3.40
2019-03-06T20:31:38.654Z,3.70
2019-03-06T20:34:05.908Z,3.90
2019-03-06T20:36:33.542Z,4.10
2019-03-06T20:39:00.779Z,4.33
2019-03-06T20:41:28.060Z,4.33
2019-03-06T20:43:55.307Z,4.43
2019-03-06T20:46:22.549Z,4.10
2019-03-06T20:48:49.820Z,4.53
2019-03-06T20:51:17.080Z,4.47
2019-03-06T20:53:44.376Z,3.73
2019-03-06T20:56:11.622Z,3.40
2019-03-06T20:58:38.874Z,4.00
2019-03-06T21:01:07.044Z,3.80
2019-03-06T21:03:34.274Z,3.67
2019-03-06T21:06:01.465Z,4.03
2019-03-06T21:08:28.722Z,3.67
2019-03-06T21:10:55.986Z,3.27
2019-03-06T21:13:23.691Z,3.37
2019-03-06T21:15:50.940Z,3.70
2019-03-06T21:18:18.134Z,4.00
2019-03-06T21:20:45.327Z,3.60
2019-03-06T21:23:12.900Z,3.90
2019-03-06T21:25:40.166Z,3.87
2019-03-06T21:28:07.510Z,4.57
2019-03-06T21:30:36.910Z,4.00
2019-03-06T21:33:04.197Z,3.70
2019-03-06T21:35:31.467Z,3.97
2019-03-06T21:37:58.688Z,3.47
2019-03-06T21:40:26.557Z,3.97
2019-03-06T21:42:53.804Z,3.63
2019-03-06T21:45:21.067Z,4.20
2019-03-06T21:47:48.303Z,5.47
2019-03-06T21:50:15.957Z,6.53
2019-03-06T21:52:43.199Z,5.30
2019-03-06T21:55:12.095Z,3.90
2019-03-06T21:57:39.328Z,4.00
2019-03-06T22:00:08.801Z,3.87
2019-03-06T22:02:36.059Z,5.00
2019-03-06T22:05:03.314Z,3.97
2019-03-06T22:07:30.561Z,4.10
2019-03-06T22:09:57.825Z,3.83
2019-03-06T22:12:25.011Z,4.10
2019-03-06T22:14:52.263Z,4.20
2019-03-06T22:17:19.489Z,4.33
2019-03-06T22:19:46.672Z,4.17
2019-03-06T22:22:13.924Z,3.87
2019-03-06T22:24:41.159Z,3.67
2019-03-06T22:27:08.340Z,4.73
2019-03-06T22:29:35.514Z,3.27
2019-03-06T22:32:02.688Z,3.93
2019-03-06T22:34:29.930Z,4.63
2019-03-06T22:36:57.112Z,4.27
2019-03-06T22:39:24.960Z,3.93
2019-03-06T22:41:52.226Z,3.57
2019-03-06T22:44:19.395Z,4.07
2019-03-06T22:46:47.007Z,3.97
2019-03-06T22:49:14.256Z,3.77
2019-03-06T22:51:42.117Z,4.20
2019-03-06T22:54:09.365Z,3.67
2019-03-06T22:56:37.073Z,4.00
2019-03-06T22:59:04.332Z,4.40
2019-03-06T23:01:31.498Z,3.63
2019-03-06T23:03:59.422Z,5.07
2019-03-06T23:06:27.278Z,4.47
2019-03-06T23:08:54.989Z,4.30
2019-03-06T23:11:22.323Z,4.70
2019-03-06T23:13:49.562Z,4.43
2019-03-06T23:16:16.759Z,4.20
2019-03-06T23:18:44.021Z,4.13
2019-03-06T23:21:11.194Z,5.10
2019-03-06T23:23:39.034Z,4.30
2019-03-06T23:26:06.218Z,3.87
2019-03-06T23:28:33.465Z,3.60
2019-03-06T23:31:00.715Z,4.47
2019-03-06T23:33:27.961Z,3.80
2019-03-06T23:35:55.207Z,3.97
2019-03-06T23:38:23.002Z,4.20
2019-03-06T23:40:50.468Z,4.93
2019-03-06T23:43:17.713Z,4.40
2019-03-06T23:45:44.949Z,4.43
2019-03-06T23:48:12.155Z,4.53
2019-03-06T23:50:39.406Z,4.60
2019-03-06T23:53:08.046Z,3.97
2019-03-06T23:55:35.994Z,4.50
2019-03-06T23:58:03.262Z,4.00
